< < Back
Terminal Aerodrome Forecast


Current Version              Previous Versions:   1  2  3  4  5  6  7  8  9  

Terminal Aerodrome Forecast

423
FTUS44 KMOB 310500
TAFPNS
TAF
KPNS 310520Z 3106/0106 VRB03KT P6SM SKC
     FM311600 09004KT P6SM SCT120 BKN250=



Latest METAR

417
SAUS70 KWBC 311500
MTRPNS
METAR KPNS 311453Z 00000KT 10SM CLR 26/16 A3004 RMK AO2 SLP173 T02560161
51012


USA.gov is the U.S. government's official web portal to all federal, state and local government web resources and services.